Time;durP1;ratioP1;P1;durP2;ratioP2;P2;SDS_P1;SDS_P2;PMS_P1;PMS_P2;Temp;Humidity;BMP_temperature;BMP_pressure;BME280_temperature;BME280_humidity;BME280_pressure;Samples;Min_cycle;Max_cycle;Signal;HPM_P1;HPM_P2
2021/11/28 00:01:39;;;;;;;19.87;12.33;;;;;;;3.34;86.93;96150.30;1662552;86;21628;-75
2021/11/28 00:04:06;;;;;;;18.55;11.93;;;;;;;3.33;87.23;96140.73;1663134;86;21483;-75
2021/11/28 00:06:35;;;;;;;21.17;12.03;;;;;;;3.30;86.94;96145.17;1669362;86;21002;-75
2021/11/28 00:11:36;;;;;;;19.20;11.55;;;;;;;3.30;86.84;96154.34;1669025;86;21090;-75
2021/11/28 00:14:11;;;;;;;20.12;11.73;;;;;;;3.29;87.17;96157.00;1672605;85;21404;-75
2021/11/28 00:16:38;;;;;;;19.90;11.95;;;;;;;3.28;87.03;96152.20;1683739;84;21006;-75
2021/11/28 00:19:06;;;;;;;19.73;12.07;;;;;;;3.29;87.33;96155.22;1683256;84;21022;-75
2021/11/28 00:21:34;;;;;;;19.37;11.95;;;;;;;3.30;87.29;96156.95;1683418;85;21033;-75
2021/11/28 00:24:01;;;;;;;18.70;11.88;;;;;;;3.32;87.39;96158.66;1683101;85;21061;-75
2021/11/28 00:26:29;;;;;;;17.52;11.22;;;;;;;3.33;87.15;96152.52;1683389;85;20989;-75
2021/11/28 00:28:56;;;;;;;18.32;11.75;;;;;;;3.32;87.45;96149.50;1683468;84;21034;-75
2021/11/28 00:31:22;;;;;;;18.82;12.10;;;;;;;3.33;87.49;96147.28;1683449;85;20955;-75
2021/11/28 00:33:49;;;;;;;19.65;11.85;;;;;;;3.33;87.17;96149.45;1683170;85;21006;-75
2021/11/28 00:36:17;;;;;;;17.90;11.90;;;;;;;3.33;87.30;96161.23;1664317;84;21025;-75
2021/11/28 00:38:44;;;;;;;19.67;12.43;;;;;;;3.35;87.37;96152.00;1688168;85;21016;-75
2021/11/28 00:41:10;;;;;;;19.87;11.55;;;;;;;3.37;87.34;96148.91;1683519;85;21008;-75
2021/11/28 00:43:37;;;;;;;18.98;12.30;;;;;;;3.38;87.53;96145.37;1683578;85;21021;-75
2021/11/28 00:46:03;;;;;;;19.15;12.20;;;;;;;3.37;87.80;96144.50;1675377;85;20996;-75
2021/11/28 00:48:30;;;;;;;18.82;11.28;;;;;;;3.38;87.79;96151.48;1674275;86;21022;-75
2021/11/28 00:53:45;;;;;;;18.52;11.08;;;;;;;3.39;87.65;96149.26;1672820;85;21061;-75
2021/11/28 00:56:12;;;;;;;21.07;11.80;;;;;;;3.38;87.36;96146.69;1669628;86;21458;-75
2021/11/28 00:58:39;;;;;;;17.02;10.70;;;;;;;3.38;87.30;96142.75;1669723;85;21014;-75
2021/11/28 01:01:08;;;;;;;17.87;11.05;;;;;;;3.37;87.42;96139.27;1665119;84;21026;-74
2021/11/28 01:03:34;;;;;;;17.20;11.25;;;;;;;3.36;87.16;96143.27;1661987;85;20996;-75
2021/11/28 01:06:01;;;;;;;16.05;10.32;;;;;;;3.33;87.22;96138.11;1691275;85;20996;-75
2021/11/28 01:08:27;;;;;;;17.10;11.25;;;;;;;3.34;87.63;96133.27;1691492;85;21020;-75
2021/11/28 01:10:54;;;;;;;18.45;11.53;;;;;;;3.30;87.39;96142.55;1684276;84;21034;-75
2021/11/28 01:13:22;;;;;;;18.92;11.20;;;;;;;3.30;87.18;96136.01;1673577;84;20993;-74
2021/11/28 01:15:49;;;;;;;17.05;10.35;;;;;;;3.28;87.06;96129.94;1632686;88;21462;-75
2021/11/28 01:18:15;;;;;;;17.52;11.22;;;;;;;3.26;87.00;96139.62;1631624;86;20986;-75
2021/11/28 01:20:42;;;;;;;16.80;11.43;;;;;;;3.24;87.10;96127.48;1642929;87;21093;-75
2021/11/28 01:23:08;;;;;;;15.75;10.63;;;;;;;3.23;86.91;96122.69;1625543;87;21018;-75
2021/11/28 01:25:35;;;;;;;19.35;11.88;;;;;;;3.24;86.85;96119.16;1645395;86;21072;-75
2021/11/28 01:28:02;;;;;;;17.77;10.93;;;;;;;3.26;86.84;96117.36;1643971;87;21100;-75
2021/11/28 01:30:30;;;;;;;18.00;11.63;;;;;;;3.28;87.03;96108.16;1647168;87;21041;-75
2021/11/28 01:32:57;;;;;;;15.70;10.63;;;;;;;3.30;87.07;96103.72;1643959;87;21447;-75
2021/11/28 01:35:24;;;;;;;16.62;11.03;;;;;;;3.31;87.26;96097.57;1632392;87;21435;-75
2021/11/28 01:37:50;;;;;;;17.35;11.28;;;;;;;3.34;87.53;96099.23;1646896;84;20958;-75
2021/11/28 01:40:20;;;;;;;15.72;10.53;;;;;;;3.37;87.79;96101.77;1680148;85;20994;-75
2021/11/28 01:42:51;;;;;;;16.10;10.95;;;;;;;3.39;87.94;96090.34;1686426;84;21429;-75
2021/11/28 01:45:23;;;;;;;16.32;10.32;;;;;;;3.40;87.92;96076.77;1642690;87;21062;-75
2021/11/28 01:47:53;;;;;;;14.43;10.58;;;;;;;3.39;88.29;96077.69;1642368;87;21045;-75
2021/11/28 01:50:24;;;;;;;15.43;10.30;;;;;;;3.42;88.11;96061.89;1642435;87;21066;-74
2021/11/28 01:52:51;;;;;;;19.10;11.20;;;;;;;3.40;88.30;96071.09;1654904;84;21100;-74
2021/11/28 01:55:23;;;;;;;17.48;11.43;;;;;;;3.38;88.56;96075.54;1670882;84;21002;-75
2021/11/28 01:57:51;;;;;;;16.87;11.15;;;;;;;3.41;88.40;96066.25;1669531;85;21033;-75
2021/11/28 02:00:25;;;;;;;18.92;11.25;;;;;;;3.40;88.63;96067.61;1669506;85;21065;-75
2021/11/28 02:02:52;;;;;;;16.35;11.18;;;;;;;3.39;88.53;96061.98;1669783;85;21042;-75
2021/11/28 02:05:22;;;;;;;17.40;11.08;;;;;;;3.39;88.59;96051.50;1669517;85;21056;-75
2021/11/28 02:07:51;;;;;;;18.77;11.75;;;;;;;3.38;88.31;96053.72;1673296;84;21017;-75
2021/11/28 02:10:20;;;;;;;19.60;11.15;;;;;;;3.33;88.17;96060.43;1661337;84;21045;-75
2021/11/28 02:12:47;;;;;;;19.10;11.05;;;;;;;3.32;88.21;96059.16;1679239;85;21061;-75
2021/11/28 02:15:16;;;;;;;19.77;12.58;;;;;;;3.28;87.79;96063.65;1682115;85;20998;-75
2021/11/28 02:17:50;;;;;;;22.25;11.30;;;;;;;3.23;87.78;96062.47;1675670;84;21404;-76
2021/11/28 02:20:19;;;;;;;17.95;11.45;;;;;;;3.16;87.41;96064.89;1683475;84;21028;-75
2021/11/28 02:22:46;;;;;;;19.60;11.83;;;;;;;3.08;87.61;96054.66;1683993;84;20986;-75
2021/11/28 02:25:12;;;;;;;21.20;13.08;;;;;;;3.03;87.51;96049.55;1683655;85;21061;-75
2021/11/28 02:27:39;;;;;;;21.85;13.08;;;;;;;2.98;87.46;96050.15;1678990;84;20981;-76
2021/11/28 02:30:08;;;;;;;19.45;12.33;;;;;;;2.94;87.36;96058.16;1683751;84;21014;-75
2021/11/28 02:32:36;;;;;;;20.62;12.53;;;;;;;2.89;87.47;96054.35;1674377;85;20987;-75
2021/11/28 02:35:05;;;;;;;19.80;12.05;;;;;;;2.86;87.35;96037.45;1661403;85;21062;-74
2021/11/28 02:37:32;;;;;;;19.57;12.23;;;;;;;2.84;87.46;96043.17;1655658;84;21029;-75
2021/11/28 02:39:59;;;;;;;18.77;12.28;;;;;;;2.81;87.88;96041.95;1677566;85;21026;-75
2021/11/28 02:42:26;;;;;;;20.32;12.30;;;;;;;2.78;87.57;96033.73;1678272;84;21016;-75
2021/11/28 02:44:54;;;;;;;18.45;11.68;;;;;;;2.77;87.51;96043.36;1683358;84;21009;-76
2021/11/28 02:47:22;;;;;;;18.15;11.57;;;;;;;2.75;87.39;96036.47;1683643;85;21076;-75
2021/11/28 02:49:50;;;;;;;19.75;11.88;;;;;;;2.73;87.40;96043.05;1686533;84;21037;-75
2021/11/28 02:52:17;;;;;;;20.37;12.05;;;;;;;2.73;87.41;96040.87;1682690;83;21012;-75
2021/11/28 02:54:44;;;;;;;19.77;11.60;;;;;;;2.71;87.31;96048.78;1669224;85;21038;-75
2021/11/28 02:57:13;;;;;;;18.02;11.75;;;;;;;2.70;87.55;96049.66;1670502;83;20963;-76
2021/11/28 02:59:40;;;;;;;17.52;11.85;;;;;;;2.69;87.24;96040.58;1674629;83;21394;-75
2021/11/28 03:02:08;;;;;;;19.05;11.25;;;;;;;2.67;87.32;96043.23;1650631;84;21046;-76
2021/11/28 03:04:37;;;;;;;19.70;12.23;;;;;;;2.67;87.51;96048.91;1640351;87;21104;-75
2021/11/28 03:07:05;;;;;;;18.90;12.35;;;;;;;2.68;87.65;96055.84;1660995;84;21038;-75
2021/11/28 03:09:31;;;;;;;20.80;12.07;;;;;;;2.67;88.04;96055.01;1654706;84;21089;-76
2021/11/28 03:11:58;;;;;;;19.50;10.82;;;;;;;2.71;87.93;96052.71;1658347;84;21037;-75
2021/11/28 03:14:25;;;;;;;19.50;11.70;;;;;;;2.76;87.83;96051.25;1669429;85;21018;-75
2021/11/28 03:16:52;;;;;;;18.40;11.93;;;;;;;2.78;88.34;96048.13;1681604;84;20992;-75
2021/11/28 03:19:19;;;;;;;19.98;13.00;;;;;;;2.81;88.32;96045.87;1680502;83;20990;-75
2021/11/28 03:21:46;;;;;;;19.02;12.13;;;;;;;2.86;89.50;96051.84;1679398;84;21025;-75
2021/11/28 03:24:12;;;;;;;19.52;12.37;;;;;;;2.92;88.58;96042.50;1687716;84;20993;-75
2021/11/28 03:26:42;;;;;;;17.60;12.05;;;;;;;2.96;88.06;96045.87;1656754;84;21467;-75
2021/11/28 03:29:17;;;;;;;19.10;12.33;;;;;;;2.98;88.54;96044.91;1671056;83;21073;-75
2021/11/28 03:32:01;;;;;;;20.52;12.40;;;;;;;3.00;90.55;96044.41;1686801;85;21092;-75
2021/11/28 03:34:37;;;;;;;20.62;12.82;;;;;;;3.04;89.00;96031.63;1665449;86;21467;-74
2021/11/28 03:37:09;;;;;;;23.07;14.28;;;;;;;3.04;88.78;96029.02;1668629;85;21025;-74
2021/11/28 03:39:35;;;;;;;24.75;15.50;;;;;;;3.05;88.81;96027.27;1673111;84;20990;-74
2021/11/28 03:42:07;;;;;;;28.47;16.52;;;;;;;3.02;88.83;96024.30;1667317;85;21126;-74
2021/11/28 03:44:36;;;;;;;30.25;17.37;;;;;;;3.00;88.32;96031.31;1641060;86;21547;-74
2021/11/28 03:47:13;;;;;;;33.88;19.87;;;;;;;2.99;88.37;96023.54;1647257;84;21042;-74
2021/11/28 03:49:40;;;;;;;34.23;18.67;;;;;;;2.96;88.06;96023.19;1641176;86;21483;-74
2021/11/28 03:52:07;;;;;;;32.40;19.12;;;;;;;2.95;88.10;96031.08;1642122;85;21050;-74
2021/11/28 03:54:34;;;;;;;34.43;19.67;;;;;;;2.95;88.27;96024.06;1640806;87;21042;-75
2021/11/28 03:57:00;;;;;;;36.73;20.12;;;;;;;2.98;88.18;96021.80;1656498;84;20998;-75
2021/11/28 03:59:29;;;;;;;34.63;19.57;;;;;;;2.99;88.17;96019.62;1679013;84;21018;-75
2021/11/28 04:01:57;;;;;;;31.02;19.42;;;;;;;3.04;88.39;96023.78;1689759;83;21077;-74
2021/11/28 04:04:23;;;;;;;32.35;19.40;;;;;;;2.99;88.49;96042.70;1682979;85;21058;-74
2021/11/28 04:06:57;;;;;;;35.85;20.08;;;;;;;3.00;88.24;96039.17;1674269;84;20978;-75
2021/11/28 04:09:24;;;;;;;31.90;19.37;;;;;;;3.00;88.16;96039.17;1680076;84;21022;-74
2021/11/28 04:11:51;;;;;;;31.65;19.15;;;;;;;2.98;88.20;96037.06;1669647;85;21435;-74
2021/11/28 04:14:19;;;;;;;32.90;19.12;;;;;;;3.01;88.18;96033.49;1669745;85;21427;-74
2021/11/28 04:16:47;;;;;;;38.53;21.65;;;;;;;3.06;88.47;96034.68;1678948;84;20998;-74
2021/11/28 04:19:14;;;;;;;34.67;20.05;;;;;;;3.10;88.33;96030.59;1690875;83;20958;-74
2021/11/28 04:21:44;;;;;;;35.80;21.25;;;;;;;3.06;87.98;96031.59;1693880;84;21048;-74
2021/11/28 04:24:13;;;;;;;38.00;22.85;;;;;;;3.01;87.86;96034.36;1676868;84;21510;-74
2021/11/28 04:26:40;;;;;;;37.17;22.25;;;;;;;2.94;87.57;96030.20;1678389;84;21050;-74
2021/11/28 04:29:07;;;;;;;44.18;23.80;;;;;;;2.90;87.42;96016.81;1683888;84;20986;-74
2021/11/28 04:31:34;;;;;;;45.83;25.35;;;;;;;2.81;87.43;96008.80;1686987;84;21057;-74
2021/11/28 04:34:01;;;;;;;44.15;24.23;;;;;;;2.73;87.46;96029.09;1687302;85;22058;-74
2021/11/28 04:36:27;;;;;;;45.05;25.45;;;;;;;2.67;87.39;96038.00;1648172;84;21018;-74
2021/11/28 04:38:55;;;;;;;44.67;25.43;;;;;;;2.60;87.06;96025.56;1650346;83;20986;-73
2021/11/28 04:41:21;;;;;;;40.63;24.92;;;;;;;2.61;87.13;96034.23;1674561;85;21096;-74
2021/11/28 04:43:51;;;;;;;39.53;24.20;;;;;;;2.60;87.30;96032.53;1674151;85;21447;-74
2021/11/28 04:46:17;;;;;;;39.88;23.77;;;;;;;2.62;87.33;96032.89;1687331;85;21029;-74
2021/11/28 04:48:44;;;;;;;40.25;24.15;;;;;;;2.62;87.17;96028.97;1669994;84;21009;-74
2021/11/28 04:51:18;;;;;;;39.35;23.30;;;;;;;2.60;87.13;96028.61;1669174;85;21423;-74
2021/11/28 04:53:44;;;;;;;39.20;23.40;;;;;;;2.60;87.45;96028.17;1670872;84;21617;-74
2021/11/28 04:56:11;;;;;;;46.23;24.90;;;;;;;2.62;87.44;96035.98;1683175;85;21069;-74
2021/11/28 04:58:38;;;;;;;44.70;24.70;;;;;;;2.61;87.30;96040.78;1673908;84;21006;-74
2021/11/28 05:01:04;;;;;;;36.98;23.22;;;;;;;2.60;87.11;96036.45;1666179;85;21435;-75
2021/11/28 05:03:31;;;;;;;42.48;23.85;;;;;;;2.61;87.13;96042.95;1669311;86;21029;-75
2021/11/28 05:06:05;;;;;;;;;;;;;;;2.61;87.12;96039.47;1606166;85;20971;-74
2021/11/28 05:08:50;;;;;;;40.85;23.02;;;;;;;2.60;87.79;96040.38;1677564;84;20093;-75
2021/11/28 05:11:17;;;;;;;42.65;24.50;;;;;;;2.58;87.20;96048.27;1650541;86;21085;-75
2021/11/28 05:13:43;;;;;;;41.23;24.60;;;;;;;2.60;87.32;96049.53;1669490;85;20994;-75
2021/11/28 05:16:10;;;;;;;42.23;24.72;;;;;;;2.58;88.39;96043.03;1678692;85;21025;-75
2021/11/28 05:18:55;;;;;;;42.05;22.80;;;;;;;2.55;87.34;96040.53;1681159;85;21365;-75
2021/11/28 05:21:29;;;;;;;;;;;;;;;2.56;87.28;96034.83;1668890;85;21010;-74
2021/11/28 05:23:55;;;;;;;40.05;22.42;;;;;;;2.60;87.13;96029.92;1650367;86;20374;-74
2021/11/28 05:26:24;;;;;;;38.15;20.95;;;;;;;2.63;87.32;96031.98;1669030;85;21026;-74
2021/11/28 05:28:51;;;;;;;31.90;19.98;;;;;;;2.68;87.89;96035.79;1669348;86;21049;-75
2021/11/28 05:31:18;;;;;;;35.90;20.20;;;;;;;2.72;87.73;96024.77;1670258;85;21053;-75
2021/11/28 05:34:03;;;;;;;31.57;19.48;;;;;;;2.75;87.82;96031.23;1669333;85;21070;-74
2021/11/28 05:36:48;;;;;;;37.90;19.57;;;;;;;2.79;87.65;96031.98;1682124;84;21050;-75
2021/11/28 05:39:15;;;;;;;36.10;20.57;;;;;;;2.82;87.77;96032.75;1677193;84;21062;-74
2021/11/28 05:41:42;;;;;;;35.60;20.02;;;;;;;2.87;87.92;96024.77;1669495;85;21405;-74
2021/11/28 05:44:10;;;;;;;32.93;20.00;;;;;;;2.92;88.09;96026.80;1669050;86;21474;-73
2021/11/28 05:46:38;;;;;;;31.23;19.40;;;;;;;3.02;88.33;96022.12;1668687;85;21511;-74
2021/11/28 05:49:06;;;;;;;34.35;18.98;;;;;;;3.13;88.27;96034.44;1651790;86;21089;-74
2021/11/28 05:51:51;;;;;;;32.63;19.10;;;;;;;3.16;88.05;96042.17;1669453;85;21049;-74
2021/11/28 05:54:20;;;;;;;37.65;21.62;;;;;;;3.17;87.76;96042.56;1669005;85;21041;-74
2021/11/28 05:56:46;;;;;;;36.93;21.33;;;;;;;3.16;87.65;96023.84;1669270;86;21117;-74
2021/11/28 05:59:13;;;;;;;36.80;22.82;;;;;;;3.15;87.64;96027.38;1672759;85;21025;-75
2021/11/28 06:01:40;;;;;;;36.70;22.10;;;;;;;3.13;87.24;96028.33;1669051;84;21018;-74
2021/11/28 06:04:07;;;;;;;37.25;22.95;;;;;;;3.07;87.27;96030.67;1669736;85;21502;-75
2021/11/28 06:06:44;;;;;;;37.17;22.77;;;;;;;3.06;87.18;96030.28;1629380;85;21009;-75
2021/11/28 06:09:12;;;;;;;39.00;21.90;;;;;;;3.02;87.04;96028.22;1683021;84;21045;-75
2021/11/28 06:11:39;;;;;;;34.78;21.33;;;;;;;2.98;86.82;96030.96;1683319;85;21062;-76
2021/11/28 06:14:05;;;;;;;40.78;21.82;;;;;;;2.94;86.85;96038.53;1671471;85;21086;-76
2021/11/28 06:16:32;;;;;;;38.40;22.25;;;;;;;2.89;87.00;96034.29;1683122;85;21029;-75
2021/11/28 06:19:18;;;;;;;37.17;22.02;;;;;;;2.87;86.68;96033.46;1683239;85;21034;-76
2021/11/28 06:21:52;;;;;;;39.33;22.22;;;;;;;2.83;87.06;96038.84;1644656;85;21089;-74
2021/11/28 06:24:21;;;;;;;35.33;22.50;;;;;;;2.77;87.15;96042.05;1682940;84;21010;-75
2021/11/28 06:26:49;;;;;;;40.67;22.42;;;;;;;2.75;87.07;96046.46;1683315;84;21033;-75
2021/11/28 06:29:16;;;;;;;39.98;23.50;;;;;;;2.72;87.30;96039.16;1679965;84;21058;-75
2021/11/28 06:31:42;;;;;;;40.88;22.10;;;;;;;2.69;86.88;96040.58;1669500;85;20993;-75
2021/11/28 06:34:27;;;;;;;37.95;22.48;;;;;;;2.68;87.31;96048.87;1674557;85;21010;-75
2021/11/28 06:37:14;;;;;;;42.15;23.85;;;;;;;2.71;87.41;96047.48;1674448;85;21331;-75
2021/11/28 06:39:43;;;;;;;38.63;22.40;;;;;;;2.74;87.17;96043.45;1653135;86;21030;-75
2021/11/28 06:42:11;;;;;;;39.78;22.85;;;;;;;2.79;86.98;96042.45;1655578;86;21042;-75
2021/11/28 06:44:37;;;;;;;39.03;22.75;;;;;;;2.81;87.21;96040.20;1655714;86;21137;-75
2021/11/28 06:47:04;;;;;;;33.60;21.35;;;;;;;2.86;87.67;96046.14;1655728;86;21066;-75
2021/11/28 06:49:31;;;;;;;39.30;22.62;;;;;;;2.90;87.08;96038.61;1655687;87;21068;-75
2021/11/28 06:52:06;;;;;;;38.02;21.87;;;;;;;2.96;87.43;96033.66;1654123;86;21022;-75
2021/11/28 06:54:51;;;;;;;38.20;21.62;;;;;;;2.96;87.64;96036.27;1660147;86;21390;-74
2021/11/28 06:57:17;;;;;;;37.23;22.15;;;;;;;3.01;87.34;96037.42;1665707;86;21407;-74
2021/11/28 06:59:44;;;;;;;38.05;22.67;;;;;;;3.04;87.25;96046.02;1680904;85;21025;-75
2021/11/28 07:02:12;;;;;;;36.58;23.70;;;;;;;3.06;87.19;96042.06;1693642;85;21073;-75
2021/11/28 07:04:40;;;;;;;37.33;21.57;;;;;;;3.09;87.30;96038.05;1692144;84;21326;-75
2021/11/28 07:07:07;;;;;;;41.90;23.50;;;;;;;3.06;88.56;96039.44;1693495;85;21060;-75
2021/11/28 07:09:34;;;;;;;38.88;22.37;;;;;;;3.08;87.57;96033.72;1693490;85;21477;-76
2021/11/28 07:12:00;;;;;;;39.73;23.47;;;;;;;3.10;87.37;96028.41;1693398;85;21021;-76
2021/11/28 07:14:26;;;;;;;39.58;23.60;;;;;;;3.13;87.58;96031.81;1693646;85;21056;-76
2021/11/28 07:16:53;;;;;;;40.17;23.83;;;;;;;3.16;87.09;96031.70;1693652;85;21048;-76
2021/11/28 07:19:19;;;;;;;42.13;24.60;;;;;;;3.19;87.18;96037.76;1693460;84;21033;-76
2021/11/28 07:22:04;;;;;;;43.33;24.92;;;;;;;3.20;87.13;96036.38;1693647;84;21013;-76
2021/11/28 07:24:31;;;;;;;38.23;23.70;;;;;;;3.22;87.28;96036.33;1693701;84;21037;-76
2021/11/28 07:26:59;;;;;;;44.95;24.90;;;;;;;3.20;87.69;96038.99;1693488;85;21034;-76
2021/11/28 07:29:26;;;;;;;39.73;24.00;;;;;;;3.21;86.98;96047.28;1683419;83;21041;-76
2021/11/28 07:31:52;;;;;;;47.03;26.42;;;;;;;3.18;87.88;96039.51;1646108;86;21009;-76
2021/11/28 07:34:35;;;;;;;43.75;25.68;;;;;;;3.20;87.52;96056.02;1537991;90;21049;-73
2021/11/28 07:37:16;;;;;;;39.95;24.65;;;;;;;3.23;87.30;96042.84;1594109;88;21009;-75
2021/11/28 07:39:42;;;;;;;42.05;25.12;;;;;;;3.26;87.55;96037.95;1683449;85;21008;-74
2021/11/28 07:42:09;;;;;;;44.38;27.27;;;;;;;3.30;87.99;96038.27;1652044;87;21459;-74
2021/11/28 07:44:36;;;;;;;46.63;28.45;;;;;;;3.34;87.25;96049.05;1691082;85;21437;-74
2021/11/28 07:47:21;;;;;;;49.42;27.65;;;;;;;3.38;87.28;96062.89;1690906;84;21067;-74
2021/11/28 07:50:02;;;;;;;45.67;26.48;;;;;;;3.37;87.30;96058.09;1673512;85;21044;-74
2021/11/28 07:52:29;;;;;;;41.75;26.97;;;;;;;3.39;87.06;96054.98;1691408;84;21016;-74
2021/11/28 07:54:56;;;;;;;43.28;26.55;;;;;;;3.42;87.21;96063.20;1689822;84;21021;-73
2021/11/28 07:57:24;;;;;;;45.65;26.77;;;;;;;3.43;87.03;96070.14;1684149;85;20998;-73
2021/11/28 08:00:04;;;;;;;46.23;27.25;;;;;;;3.46;86.72;96059.58;1628381;86;21037;-73
2021/11/28 08:02:31;;;;;;;46.37;26.45;;;;;;;3.52;86.85;96063.73;1650374;85;21455;-74
2021/11/28 08:05:07;;;;;;;;;;;;;;;3.53;86.61;96062.38;1612202;85;21021;-74
2021/11/28 08:07:52;;;;;;;49.77;28.45;;;;;;;3.57;86.55;96050.03;1683299;85;20125;-74
2021/11/28 08:10:30;;;;;;;51.20;30.15;;;;;;;3.56;86.75;96064.05;1607205;89;21450;-73
2021/11/28 08:12:58;;;;;;;57.30;35.63;;;;;;;3.56;86.42;96067.53;1683425;84;21073;-74
2021/11/28 08:15:24;;;;;;;53.25;32.30;;;;;;;3.61;86.76;96069.16;1683254;85;21455;-74
2021/11/28 08:17:51;;;;;;;56.23;32.28;;;;;;;3.63;86.49;96077.36;1685296;84;21050;-74
2021/11/28 08:20:22;;;;;;;51.88;31.07;;;;;;;3.69;86.55;96074.53;1683999;85;20990;-74
2021/11/28 08:22:47;;;;;;;49.38;28.23;;;;;;;3.75;86.50;96078.72;1683807;84;21084;-74
2021/11/28 08:25:15;;;;;;;50.65;30.15;;;;;;;3.82;86.62;96076.76;1683407;84;21478;-74
2021/11/28 08:27:42;;;;;;;51.45;29.25;;;;;;;3.86;86.60;96070.48;1686065;84;21036;-74
2021/11/28 08:30:15;;;;;;;46.98;27.58;;;;;;;3.94;86.62;96074.14;1672016;84;21455;-74
2021/11/28 08:33:04;;;;;;;44.35;27.00;;;;;;;3.99;86.54;96073.56;1673141;85;21482;-74
2021/11/28 08:35:47;;;;;;;38.02;25.30;;;;;;;4.09;86.63;96071.47;1683600;85;21077;-74
2021/11/28 08:38:14;;;;;;;42.58;26.73;;;;;;;4.23;86.47;96074.46;1684044;85;21420;-74
2021/11/28 08:40:41;;;;;;;41.10;25.70;;;;;;;4.40;86.62;96070.84;1683870;85;21132;-74
2021/11/28 08:43:09;;;;;;;41.35;24.70;;;;;;;4.59;86.63;96064.45;1683720;85;21002;-74
2021/11/28 08:45:37;;;;;;;40.03;23.77;;;;;;;4.80;86.64;96063.25;1684057;84;21049;-74
2021/11/28 08:48:04;;;;;;;39.78;23.92;;;;;;;4.99;85.67;96066.05;1684539;84;21061;-74
2021/11/28 08:50:32;;;;;;;35.73;22.82;;;;;;;5.15;85.82;96057.96;1684026;85;21033;-74
2021/11/28 08:52:59;;;;;;;32.55;21.90;;;;;;;5.35;86.17;96050.23;1686293;84;21414;-74
2021/11/28 08:55:25;;;;;;;34.15;21.25;;;;;;;5.53;85.20;96040.73;1688397;84;21069;-74
2021/11/28 08:57:53;;;;;;;35.40;20.95;;;;;;;5.68;84.45;96039.23;1692214;84;21065;-74
2021/11/28 09:00:20;;;;;;;31.48;21.02;;;;;;;5.84;84.75;96034.64;1686326;83;21613;-74
2021/11/28 09:02:49;;;;;;;29.30;19.40;;;;;;;6.04;85.13;96039.09;1693559;85;20993;-74
2021/11/28 09:05:19;;;;;;;31.48;20.08;;;;;;;6.22;85.44;96026.08;1693554;85;21443;-74
2021/11/28 09:07:47;;;;;;;39.90;20.82;;;;;;;6.36;85.22;96017.12;1691651;85;20977;-74
2021/11/28 09:10:15;;;;;;;27.87;19.30;;;;;;;6.50;81.70;96018.25;1693585;85;21450;-74
2021/11/28 09:12:42;;;;;;;33.88;20.12;;;;;;;6.64;84.28;96001.37;1691458;85;21481;-74
2021/11/28 09:15:11;;;;;;;29.90;19.75;;;;;;;6.78;83.68;95995.48;1693579;85;21029;-74
2021/11/28 09:17:43;;;;;;;28.90;19.73;;;;;;;6.95;82.16;95997.33;1693629;84;21057;-74
2021/11/28 09:20:10;;;;;;;28.57;19.25;;;;;;;7.07;83.32;95986.67;1693104;84;21100;-74
2021/11/28 09:25:10;;;;;;;30.97;20.52;;;;;;;7.20;82.25;95958.40;1683359;84;20969;-74
2021/11/28 09:27:45;;;;;;;30.17;19.50;;;;;;;7.28;82.36;95945.71;1678043;84;21057;-74
2021/11/28 09:30:15;;;;;;;27.20;18.75;;;;;;;7.34;80.45;95941.45;1677775;84;20989;-73
2021/11/28 09:32:46;;;;;;;36.33;19.70;;;;;;;7.41;81.46;95953.86;1683021;84;21445;-74
2021/11/28 09:35:15;;;;;;;30.52;20.37;;;;;;;7.51;81.43;95951.59;1666483;84;21033;-74
2021/11/28 09:37:42;;;;;;;86.53;44.60;;;;;;;7.59;80.40;95944.16;1666883;84;21021;-74
2021/11/28 09:40:11;;;;;;;31.45;20.15;;;;;;;7.68;81.13;95942.00;1683930;84;21056;-74
2021/11/28 09:42:47;;;;;;;28.32;17.90;;;;;;;7.77;79.39;95937.58;1676995;83;21003;-74
2021/11/28 09:45:15;;;;;;;24.37;15.48;;;;;;;7.85;80.11;95939.33;1681395;84;21049;-74
2021/11/28 09:47:45;;;;;;;24.85;17.12;;;;;;;7.95;79.52;95923.89;1666038;84;21056;-74
2021/11/28 09:50:13;;;;;;;28.05;16.77;;;;;;;8.12;79.04;95922.13;1658226;85;21021;-74
2021/11/28 09:52:43;;;;;;;22.80;15.68;;;;;;;8.29;78.22;95918.14;1676859;85;20986;-74
2021/11/28 09:55:12;;;;;;;26.97;17.07;;;;;;;8.50;78.80;95919.67;1681489;85;21435;-74
2021/11/28 09:57:41;;;;;;;24.37;16.75;;;;;;;8.68;78.40;95915.22;1677934;85;21001;-74
2021/11/28 10:00:12;;;;;;;25.12;16.93;;;;;;;8.80;77.27;95908.41;1674028;83;21443;-74
2021/11/28 10:02:41;;;;;;;25.35;16.50;;;;;;;8.88;76.00;95898.73;1714033;83;21013;-73
2021/11/28 10:05:12;;;;;;;23.62;16.62;;;;;;;8.95;76.42;95898.28;1684937;85;21068;-73
2021/11/28 10:07:43;;;;;;;27.07;17.77;;;;;;;9.01;77.02;95898.39;1692637;83;21153;-74
2021/11/28 10:10:13;;;;;;;27.80;16.80;;;;;;;9.09;76.37;95886.92;1676283;84;21053;-74
2021/11/28 10:12:44;;;;;;;24.65;16.23;;;;;;;9.15;76.06;95876.47;1675348;85;21022;-74
2021/11/28 10:15:16;;;;;;;24.63;16.23;;;;;;;9.20;76.21;95871.77;1673590;84;20996;-74
2021/11/28 10:17:42;;;;;;;27.10;17.50;;;;;;;9.26;75.90;95882.92;1659621;86;21025;-74
2021/11/28 10:20:16;;;;;;;26.65;17.77;;;;;;;9.35;76.73;95882.39;1618095;88;21046;-74
2021/11/28 10:22:45;;;;;;;24.95;17.62;;;;;;;9.42;76.08;95886.36;1659707;86;21048;-74
2021/11/28 10:25:16;;;;;;;25.23;16.80;;;;;;;9.53;74.52;95893.66;1659872;86;21052;-74
2021/11/28 10:27:49;;;;;;;24.80;15.68;;;;;;;9.64;75.89;95887.25;1621265;88;21053;-75
2021/11/28 10:30:38;;;;;;;20.48;13.70;;;;;;;9.77;75.73;95883.88;1627209;88;21065;-74
2021/11/28 10:33:15;;;;;;;71.25;45.43;;;;;;;9.99;74.11;95881.23;1674927;84;21398;-74
2021/11/28 10:36:07;;;;;;;15.38;11.28;;;;;;;10.99;76.99;95877.69;1677861;84;21057;-74
2021/11/28 10:38:40;;;;;;;13.28;10.45;;;;;;;12.33;69.69;95889.99;1633937;86;21033;-74
2021/11/28 10:41:28;;;;;;;15.65;7.67;;;;;;;13.89;67.44;95890.65;1648339;86;21041;-74
2021/11/28 10:43:58;;;;;;;12.03;7.33;;;;;;;15.19;66.04;95891.56;1655531;85;21025;-75
2021/11/28 10:46:30;;;;;;;10.93;7.22;;;;;;;16.45;55.65;95892.24;1655746;87;21446;-75
2021/11/28 10:49:18;;;;;;;10.05;6.67;;;;;;;17.44;57.56;95880.45;1655675;85;21408;-73
2021/11/28 10:51:52;;;;;;;10.90;6.90;;;;;;;18.44;58.48;95878.31;1687446;84;21494;-73
2021/11/28 10:54:38;;;;;;;7.35;5.87;;;;;;;19.43;56.63;95875.61;1679775;84;20966;-74
2021/11/28 10:57:14;;;;;;;8.05;6.53;;;;;;;20.26;52.51;95869.56;1667849;84;21064;-74
2021/11/28 10:59:46;;;;;;;47.93;36.70;;;;;;;20.81;47.09;95864.26;1649692;85;21023;-75
2021/11/28 11:02:30;;;;;;;10.15;6.40;;;;;;;21.22;50.24;95860.88;1636564;86;21073;-74
2021/11/28 11:05:00;;;;;;;6.58;5.45;;;;;;;21.81;47.96;95860.48;1673445;85;21077;-74
2021/11/28 11:07:31;;;;;;;8.23;5.35;;;;;;;21.61;40.80;95855.39;1675568;84;21033;-75
2021/11/28 11:09:57;;;;;;;8.05;5.35;;;;;;;21.38;42.67;95847.09;1667849;84;21065;-74
2021/11/28 11:12:35;;;;;;;4.35;3.95;;;;;;;19.98;41.47;95846.86;1692625;83;21104;-74
2021/11/28 11:14:59;;;;;;;4.12;2.80;;;;;;;20.57;40.74;95848.38;1683977;83;21044;-74
2021/11/28 11:17:31;;;;;;;3.80;2.00;;;;;;;21.61;43.30;95836.53;1641501;86;21008;-74
2021/11/28 11:19:59;;;;;;;1.40;1.05;;;;;;;22.41;41.91;95835.92;1662851;85;21427;-74
2021/11/28 11:22:30;;;;;;;2.20;0.90;;;;;;;23.04;39.16;95814.94;1642391;86;21004;-75
2021/11/28 11:25:17;;;;;;;1.02;0.75;;;;;;;22.80;35.75;95810.82;1649081;86;21024;-74
2021/11/28 11:27:43;;;;;;;1.02;0.93;;;;;;;22.46;35.45;95815.17;1669470;85;20990;-73
2021/11/28 11:30:18;;;;;;;3.05;1.00;;;;;;;21.88;39.20;95815.63;1645795;86;21083;-73
2021/11/28 11:32:48;;;;;;;2.00;0.80;;;;;;;21.04;41.78;95818.42;1686892;84;20969;-73
2021/11/28 11:35:27;;;;;;;1.00;0.70;;;;;;;20.07;39.89;95814.99;1687409;84;20974;-73
2021/11/28 11:38:09;;;;;;;1.20;0.82;;;;;;;20.05;40.16;95815.63;1637530;86;21080;-74
2021/11/28 11:40:36;;;;;;;1.87;0.70;;;;;;;20.01;39.87;95821.84;1670251;84;21462;-73
2021/11/28 11:43:04;;;;;;;1.32;1.00;;;;;;;19.78;41.55;95834.93;1643946;85;21030;-74
2021/11/28 11:45:36;;;;;;;4.78;3.77;;;;;;;20.24;41.67;95827.17;1644091;86;22209;-73
2021/11/28 11:48:06;;;;;;;13.30;10.82;;;;;;;20.57;40.69;95823.30;1670879;84;21486;-74